EDT,Max TemperatureF,Mean TemperatureF,Min TemperatureF,Max Dew PointF,MeanDew PointF,Min DewpointF,Max Humidity, Mean Humidity, Min Humidity, Max Sea Level PressureIn, Mean Sea Level PressureIn, Min Sea Level PressureIn, Max VisibilityMiles, Mean VisibilityMiles, Min VisibilityMiles, Max Wind SpeedMPH, Mean Wind SpeedMPH, Max Gust SpeedMPH,PrecipitationIn, CloudCover, Events, WindDirDegrees
2013-5-1,75,54,34,40,32,20,98,51,13,30.46,30.41,30.36,10,10,5,9,2,10,0.00,0,,103
2013-5-2,78,57,36,41,35,25,99,56,18,30.51,30.42,30.33,10,10,7,15,2,21,0.00,2,,115
2013-5-3,67,50,32,45,37,32,98,63,32,30.54,30.45,30.36,10,10,7,9,2,9,0.00,0,,126
2013-5-4,71,54,36,45,37,23,100,61,17,30.38,30.31,30.22,10,9,1,10,3,18,0.00,0,,108
2013-5-5,72,52,32,40,34,27,99,59,19,30.33,30.26,30.17,10,10,4,10,2,,0.00,0,,102
2013-5-6,51,42,33,42,38,34,100,92,67,30.26,30.23,30.15,10,7,0,0,0,,0.00,1,Fog,-1
2013-5-7,81,58,36,48,39,29,100,59,15,30.17,30.12,30.04,10,8,0,10,1,16,0.00,0,Fog,144
2013-5-8,74,58,43,62,52,43,98,78,43,30.21,30.15,30.08,10,9,1,14,2,18,0.18,4,Rain,107
2013-5-9,68,62,56,58,56,54,97,83,60,30.04,29.95,29.89,10,10,2,8,2,,0.20,7,Rain-Thunderstorm,111
2013-5-10,75,64,54,60,55,49,97,72,40,29.95,29.91,29.89,10,8,2,12,2,17,0.00,4,Rain,288
2013-5-11,68,62,57,62,58,55,97,90,77,29.89,29.73,29.65,10,8,1,8,2,,0.44,8,Rain,117
2013-5-12,65,55,45,59,43,24,97,65,37,29.76,29.64,29.57,10,9,0,17,4,24,0.01,6,Fog-Rain,275
2013-5-13,51,44,37,36,29,25,94,56,41,30.04,29.90,29.77,10,10,10,22,7,33,0.00,6,Rain,255
2013-5-14,57,44,31,37,29,20,100,60,26,30.06,30.01,29.96,10,10,5,15,5,23,0.00,3,,299
2013-5-15,66,46,27,49,37,27,100,77,26,30.05,29.88,29.66,10,9,3,10,2,20,0.15,4,Rain,122
2013-5-16,75,60,46,54,40,26,99,58,17,29.84,29.66,29.59,10,8,0,21,5,38,0.00,4,Fog,281
2013-5-17,65,56,45,44,38,31,91,57,29,30.23,30.04,29.84,10,10,7,15,6,24,0.00,6,,311
2013-5-18,71,53,35,44,37,27,100,61,20,30.31,30.26,30.20,10,9,1,14,2,17,0.00,3,,228
2013-5-19,65,52,40,54,47,40,99,81,54,30.34,30.28,30.20,10,9,0,10,3,,0.60,4,Fog-Rain,88
2013-5-20,70,61,52,60,56,52,97,88,67,30.19,30.02,29.96,10,7,0,9,3,,0.28,7,Fog-Rain,304
2013-5-21,64,57,50,59,54,49,98,92,82,30.06,29.97,29.92,10,8,0,12,2,16,0.57,8,Fog-Rain-Thunderstorm,114
2013-5-22,60,55,50,56,52,49,96,91,81,29.98,29.93,29.90,10,8,2,8,2,,0.30,8,Rain,101
2013-5-23,67,60,52,64,57,51,97,92,83,29.92,29.84,29.75,10,7,2,7,3,,0.02,8,Rain-Thunderstorm,81
2013-5-24,65,56,46,63,53,42,97,85,68,29.88,29.76,29.63,10,9,4,21,6,30,0.12,8,Rain,277
2013-5-25,46,40,34,44,40,33,97,87,77,29.88,29.80,29.75,10,8,3,16,8,24,0.56,8,Rain-Snow-Thunderstorm,282
2013-5-26,51,44,36,40,37,34,93,77,62,30.04,29.86,29.72,10,10,5,21,12,30,0.01,6,Rain,289
2013-5-27,65,49,33,41,34,25,100,62,22,30.20,30.10,30.04,10,10,10,20,5,32,0.00,1,,296
2013-5-28,73,52,32,46,38,32,100,63,26,30.27,30.20,30.13,10,9,1,7,1,,0.00,0,,130
2013-5-29,56,52,48,55,51,45,97,92,82,30.18,30.09,30.01,10,8,3,0,0,,0.17,7,Rain-Thunderstorm,-1
2013-5-30,84,69,54,67,58,53,98,75,37,30.06,30.03,29.99,10,6,0,13,2,23,0.00,4,Fog,290
2013-5-31,91,73,55,69,58,50,98,67,25,30.10,30.01,29.91,10,7,0,12,2,18,0.00,3,Fog,268